KBZN/BZN METAR and TAF weather

Enter ICAO airport designator
Station Type Date Time Source
KBZN METAR 2018/07/19 06:56 UTC NOAA

KBZN 190656Z 15008KT 10SM CLR 14/08 A3010 RMK AO2 SLP151 T01440083 403330094


Station Type Date Time Source
KBZN Decoded METAR 2018/07/19 06:56 UTC NOAA

BOZEMAN GALLATIN FIELD, MT, United States (KBZN) 45-47N 111-09W 1361M
Jul 19, 2018 - 02:56 AM EDT / 2018.07.19 0656 UTC
Wind: from the SSE (150 degrees) at 9 MPH (8 KT):0
Visibility: 10 mile(s):0
Sky conditions: clear
Temperature: 57.9 F (14.4 C)
Dew Point: 46.9 F (8.3 C)
Relative Humidity: 66%
Pressure (altimeter): 30.1 in. Hg (1019 hPa)
ob: KBZN 190656Z 15008KT 10SM CLR 14/08 A3010 RMK AO2 SLP151 T01440083 403330094
cycle: 7

Station Type Date Time Source
KBZN TAF 2018/07/19 06:22 UTC NOAA

TAF KBZN 190520Z 1906/2012 VRB04KT P6SM FEW130


Example: see airport list